sensor_id;sensor_type;location;lat;lon;timestamp;temperature;humidity
18305;DHT22;9278;52.156;21.048;2022-08-14T00:02:14;20.80;99.90
18305;DHT22;9278;52.156;21.048;2022-08-14T00:04:42;20.80;99.90
18305;DHT22;9278;52.156;21.048;2022-08-14T00:07:12;20.70;99.90
18305;DHT22;9278;52.156;21.048;2022-08-14T00:09:41;20.80;99.90
18305;DHT22;9278;52.156;21.048;2022-08-14T00:12:30;20.80;99.90
18305;DHT22;9278;52.156;21.048;2022-08-14T00:15:09;20.80;99.90
18305;DHT22;9278;52.156;21.048;2022-08-14T00:17:41;20.80;99.90
18305;DHT22;9278;52.156;21.048;2022-08-14T00:20:22;20.90;99.90
18305;DHT22;9278;52.156;21.048;2022-08-14T00:22:58;20.90;99.90
18305;DHT22;9278;52.156;21.048;2022-08-14T00:25:45;20.90;99.90
18305;DHT22;9278;52.156;21.048;2022-08-14T00:28:32;20.80;99.90
18305;DHT22;9278;52.156;21.048;2022-08-14T00:31:04;20.90;99.90
18305;DHT22;9278;52.156;21.048;2022-08-14T00:33:35;20.90;99.90
18305;DHT22;9278;52.156;21.048;2022-08-14T00:36:19;20.90;99.90
18305;DHT22;9278;52.156;21.048;2022-08-14T00:39:11;20.90;99.90
18305;DHT22;9278;52.156;21.048;2022-08-14T00:41:44;20.90;99.90
18305;DHT22;9278;52.156;21.048;2022-08-14T00:44:12;20.90;99.90
18305;DHT22;9278;52.156;21.048;2022-08-14T00:46:58;20.90;99.90
18305;DHT22;9278;52.156;21.048;2022-08-14T00:49:26;20.80;99.90
18305;DHT22;9278;52.156;21.048;2022-08-14T00:51:56;20.90;99.90
18305;DHT22;9278;52.156;21.048;2022-08-14T00:54:27;21.00;99.90
18305;DHT22;9278;52.156;21.048;2022-08-14T00:56:55;20.90;99.90
18305;DHT22;9278;52.156;21.048;2022-08-14T00:59:24;21.00;99.90
18305;DHT22;9278;52.156;21.048;2022-08-14T01:01:56;20.60;99.90
18305;DHT22;9278;52.156;21.048;2022-08-14T01:04:26;20.30;99.90
18305;DHT22;9278;52.156;21.048;2022-08-14T01:07:15;19.90;99.90
18305;DHT22;9278;52.156;21.048;2022-08-14T01:09:49;19.80;99.90
18305;DHT22;9278;52.156;21.048;2022-08-14T01:12:19;19.50;99.90
18305;DHT22;9278;52.156;21.048;2022-08-14T01:14:55;19.40;99.90
18305;DHT22;9278;52.156;21.048;2022-08-14T01:17:24;19.40;99.90
18305;DHT22;9278;52.156;21.048;2022-08-14T01:20:16;19.40;99.90
18305;DHT22;9278;52.156;21.048;2022-08-14T01:23:08;19.40;1.00
18305;DHT22;9278;52.156;21.048;2022-08-14T01:25:45;19.40;1.00
18305;DHT22;9278;52.156;21.048;2022-08-14T01:28:14;19.40;1.00
18305;DHT22;9278;52.156;21.048;2022-08-14T01:31:07;19.40;99.90
18305;DHT22;9278;52.156;21.048;2022-08-14T01:33:36;19.40;99.90
18305;DHT22;9278;52.156;21.048;2022-08-14T01:36:27;19.40;99.90
18305;DHT22;9278;52.156;21.048;2022-08-14T01:39:04;19.30;99.90
18305;DHT22;9278;52.156;21.048;2022-08-14T01:41:39;19.40;58.40
18305;DHT22;9278;52.156;21.048;2022-08-14T01:44:11;19.40;1.00
18305;DHT22;9278;52.156;21.048;2022-08-14T01:47:02;19.40;99.90
18305;DHT22;9278;52.156;21.048;2022-08-14T01:49:48;19.40;1.00
18305;DHT22;9278;52.156;21.048;2022-08-14T01:52:30;19.50;99.90
18305;DHT22;9278;52.156;21.048;2022-08-14T01:55:21;19.50;1.00
18305;DHT22;9278;52.156;21.048;2022-08-14T01:57:50;19.50;1.00
18305;DHT22;9278;52.156;21.048;2022-08-14T02:00:38;19.60;99.90
18305;DHT22;9278;52.156;21.048;2022-08-14T02:03:07;19.60;99.90
18305;DHT22;9278;52.156;21.048;2022-08-14T02:05:35;19.60;99.90
18305;DHT22;9278;52.156;21.048;2022-08-14T02:08:05;19.70;1.00
18305;DHT22;9278;52.156;21.048;2022-08-14T02:10:39;19.70;1.00
18305;DHT22;9278;52.156;21.048;2022-08-14T02:13:14;19.70;1.00
18305;DHT22;9278;52.156;21.048;2022-08-14T02:15:43;19.60;1.00
18305;DHT22;9278;52.156;21.048;2022-08-14T02:18:16;19.60;1.00
18305;DHT22;9278;52.156;21.048;2022-08-14T02:20:45;19.60;99.90
18305;DHT22;9278;52.156;21.048;2022-08-14T02:23:14;19.50;99.90
18305;DHT22;9278;52.156;21.048;2022-08-14T02:26:01;19.50;99.90
18305;DHT22;9278;52.156;21.048;2022-08-14T02:28:53;19.50;99.90
18305;DHT22;9278;52.156;21.048;2022-08-14T02:31:27;19.50;99.90
18305;DHT22;9278;52.156;21.048;2022-08-14T02:34:11;19.60;99.90
18305;DHT22;9278;52.156;21.048;2022-08-14T02:36:51;19.60;99.90
18305;DHT22;9278;52.156;21.048;2022-08-14T02:39:33;19.60;99.90
18305;DHT22;9278;52.156;21.048;2022-08-14T02:42:05;19.70;99.90
18305;DHT22;9278;52.156;21.048;2022-08-14T02:44:40;19.70;99.90
18305;DHT22;9278;52.156;21.048;2022-08-14T02:47:16;19.70;99.90
18305;DHT22;9278;52.156;21.048;2022-08-14T02:49:47;19.60;99.90
18305;DHT22;9278;52.156;21.048;2022-08-14T02:52:23;19.60;99.90
18305;DHT22;9278;52.156;21.048;2022-08-14T02:55:12;19.60;99.90
18305;DHT22;9278;52.156;21.048;2022-08-14T02:57:48;19.70;99.90
18305;DHT22;9278;52.156;21.048;2022-08-14T03:00:31;19.60;99.90
18305;DHT22;9278;52.156;21.048;2022-08-14T03:03:06;19.50;99.90
18305;DHT22;9278;52.156;21.048;2022-08-14T03:05:35;19.40;99.90
18305;DHT22;9278;52.156;21.048;2022-08-14T03:08:09;19.30;99.90
18305;DHT22;9278;52.156;21.048;2022-08-14T03:10:45;19.30;99.90
18305;DHT22;9278;52.156;21.048;2022-08-14T03:13:17;19.40;99.90
18305;DHT22;9278;52.156;21.048;2022-08-14T03:15:48;19.30;99.90
18305;DHT22;9278;52.156;21.048;2022-08-14T03:18:23;19.30;99.90
18305;DHT22;9278;52.156;21.048;2022-08-14T03:21:04;19.30;99.90
18305;DHT22;9278;52.156;21.048;2022-08-14T03:23:34;19.30;99.90
18305;DHT22;9278;52.156;21.048;2022-08-14T03:26:06;19.30;99.90
18305;DHT22;9278;52.156;21.048;2022-08-14T03:28:41;19.30;99.90
18305;DHT22;9278;52.156;21.048;2022-08-14T03:31:10;19.30;99.90
18305;DHT22;9278;52.156;21.048;2022-08-14T03:33:39;19.40;99.90
18305;DHT22;9278;52.156;21.048;2022-08-14T03:36:11;19.40;99.90
18305;DHT22;9278;52.156;21.048;2022-08-14T03:39:03;19.40;99.90
18305;DHT22;9278;52.156;21.048;2022-08-14T03:41:44;19.40;99.90
18305;DHT22;9278;52.156;21.048;2022-08-14T03:44:14;19.40;99.90
18305;DHT22;9278;52.156;21.048;2022-08-14T03:47:03;19.40;99.90
18305;DHT22;9278;52.156;21.048;2022-08-14T03:49:31;19.40;99.90
18305;DHT22;9278;52.156;21.048;2022-08-14T03:52:00;19.40;99.90
18305;DHT22;9278;52.156;21.048;2022-08-14T03:54:44;19.50;99.90
18305;DHT22;9278;52.156;21.048;2022-08-14T03:57:18;19.60;99.90
18305;DHT22;9278;52.156;21.048;2022-08-14T03:59:50;19.70;99.90
18305;DHT22;9278;52.156;21.048;2022-08-14T04:02:19;19.70;99.90
18305;DHT22;9278;52.156;21.048;2022-08-14T04:05:04;19.80;99.90
18305;DHT22;9278;52.156;21.048;2022-08-14T04:07:39;19.80;99.90
18305;DHT22;9278;52.156;21.048;2022-08-14T04:10:27;19.90;99.90
18305;DHT22;9278;52.156;21.048;2022-08-14T04:12:58;20.00;99.90
18305;DHT22;9278;52.156;21.048;2022-08-14T04:15:32;19.90;99.90
18305;DHT22;9278;52.156;21.048;2022-08-14T04:18:20;20.00;99.90
18305;DHT22;9278;52.156;21.048;2022-08-14T04:20:48;20.10;99.90
18305;DHT22;9278;52.156;21.048;2022-08-14T04:23:21;20.00;99.90
18305;DHT22;9278;52.156;21.048;2022-08-14T04:26:00;20.10;99.90
18305;DHT22;9278;52.156;21.048;2022-08-14T04:28:29;20.10;99.90
18305;DHT22;9278;52.156;21.048;2022-08-14T04:31:20;20.10;99.90
18305;DHT22;9278;52.156;21.048;2022-08-14T04:34:08;20.10;99.90
18305;DHT22;9278;52.156;21.048;2022-08-14T04:36:53;20.10;99.90
18305;DHT22;9278;52.156;21.048;2022-08-14T04:39:38;20.10;99.90
18305;DHT22;9278;52.156;21.048;2022-08-14T04:42:25;20.10;99.90
18305;DHT22;9278;52.156;21.048;2022-08-14T04:45:19;20.10;99.90
18305;DHT22;9278;52.156;21.048;2022-08-14T04:47:51;20.30;99.90
18305;DHT22;9278;52.156;21.048;2022-08-14T04:50:40;20.70;99.90
18305;DHT22;9278;52.156;21.048;2022-08-14T04:53:13;20.80;99.90
18305;DHT22;9278;52.156;21.048;2022-08-14T04:55:42;20.70;99.90
18305;DHT22;9278;52.156;21.048;2022-08-14T04:58:19;20.80;99.90
18305;DHT22;9278;52.156;21.048;2022-08-14T05:01:00;20.70;99.90
18305;DHT22;9278;52.156;21.048;2022-08-14T05:03:32;20.80;99.90
18305;DHT22;9278;52.156;21.048;2022-08-14T05:06:05;20.90;99.90
18305;DHT22;9278;52.156;21.048;2022-08-14T05:08:53;21.00;99.90
18305;DHT22;9278;52.156;21.048;2022-08-14T05:11:26;21.20;99.90
18305;DHT22;9278;52.156;21.048;2022-08-14T05:13:54;21.30;99.90
18305;DHT22;9278;52.156;21.048;2022-08-14T05:16:42;21.60;99.90
18305;DHT22;9278;52.156;21.048;2022-08-14T05:19:14;22.10;99.90
18305;DHT22;9278;52.156;21.048;2022-08-14T05:21:53;22.10;99.90
18305;DHT22;9278;52.156;21.048;2022-08-14T05:24:44;22.00;99.90
18305;DHT22;9278;52.156;21.048;2022-08-14T05:27:15;21.50;99.90
18305;DHT22;9278;52.156;21.048;2022-08-14T05:29:51;21.30;99.90
18305;DHT22;9278;52.156;21.048;2022-08-14T05:32:22;21.20;99.90
18305;DHT22;9278;52.156;21.048;2022-08-14T05:34:55;21.30;99.90
18305;DHT22;9278;52.156;21.048;2022-08-14T05:37:25;21.30;99.90
18305;DHT22;9278;52.156;21.048;2022-08-14T05:39:57;21.60;99.90
18305;DHT22;9278;52.156;21.048;2022-08-14T05:42:27;21.80;99.90
18305;DHT22;9278;52.156;21.048;2022-08-14T05:45:05;21.90;99.90
18305;DHT22;9278;52.156;21.048;2022-08-14T05:47:40;22.00;99.90
18305;DHT22;9278;52.156;21.048;2022-08-14T05:50:12;22.10;99.90
18305;DHT22;9278;52.156;21.048;2022-08-14T05:52:45;22.00;99.90
18305;DHT22;9278;52.156;21.048;2022-08-14T05:55:14;22.00;99.90
18305;DHT22;9278;52.156;21.048;2022-08-14T05:57:53;21.90;99.90
18305;DHT22;9278;52.156;21.048;2022-08-14T06:00:28;22.10;99.90
18305;DHT22;9278;52.156;21.048;2022-08-14T06:03:06;22.00;99.90
18305;DHT22;9278;52.156;21.048;2022-08-14T06:05:36;22.20;99.90
18305;DHT22;9278;52.156;21.048;2022-08-14T06:08:12;22.40;99.90
18305;DHT22;9278;52.156;21.048;2022-08-14T06:11:03;22.70;99.90
18305;DHT22;9278;52.156;21.048;2022-08-14T06:13:33;22.80;99.90
18305;DHT22;9278;52.156;21.048;2022-08-14T06:16:13;22.80;99.90
18305;DHT22;9278;52.156;21.048;2022-08-14T06:18:45;23.00;99.90
18305;DHT22;9278;52.156;21.048;2022-08-14T06:21:19;23.30;99.90
18305;DHT22;9278;52.156;21.048;2022-08-14T06:23:48;23.60;99.90
18305;DHT22;9278;52.156;21.048;2022-08-14T06:26:17;23.70;99.90
18305;DHT22;9278;52.156;21.048;2022-08-14T06:28:48;23.70;99.90
18305;DHT22;9278;52.156;21.048;2022-08-14T06:31:20;24.10;99.90
18305;DHT22;9278;52.156;21.048;2022-08-14T06:33:48;24.50;99.90
18305;DHT22;9278;52.156;21.048;2022-08-14T06:36:38;24.70;99.90
18305;DHT22;9278;52.156;21.048;2022-08-14T06:39:07;24.30;99.90
18305;DHT22;9278;52.156;21.048;2022-08-14T06:41:36;23.70;99.90
18305;DHT22;9278;52.156;21.048;2022-08-14T06:44:26;23.50;99.90
18305;DHT22;9278;52.156;21.048;2022-08-14T06:47:00;24.20;99.90
18305;DHT22;9278;52.156;21.048;2022-08-14T06:49:28;24.90;99.90
18305;DHT22;9278;52.156;21.048;2022-08-14T06:52:12;25.00;99.90
18305;DHT22;9278;52.156;21.048;2022-08-14T06:54:42;24.90;99.90
18305;DHT22;9278;52.156;21.048;2022-08-14T06:57:11;24.40;99.90
18305;DHT22;9278;52.156;21.048;2022-08-14T06:59:40;24.00;99.90
18305;DHT22;9278;52.156;21.048;2022-08-14T07:02:09;24.30;99.90
18305;DHT22;9278;52.156;21.048;2022-08-14T07:04:55;24.30;99.90
18305;DHT22;9278;52.156;21.048;2022-08-14T07:07:48;24.10;99.90
18305;DHT22;9278;52.156;21.048;2022-08-14T07:10:16;23.80;99.90
18305;DHT22;9278;52.156;21.048;2022-08-14T07:12:46;24.00;99.90
18305;DHT22;9278;52.156;21.048;2022-08-14T07:15:29;24.00;99.90
18305;DHT22;9278;52.156;21.048;2022-08-14T07:18:00;23.90;99.90
18305;DHT22;9278;52.156;21.048;2022-08-14T07:20:30;24.50;99.90
18305;DHT22;9278;52.156;21.048;2022-08-14T07:23:02;24.70;99.90
18305;DHT22;9278;52.156;21.048;2022-08-14T07:25:35;25.00;99.90
18305;DHT22;9278;52.156;21.048;2022-08-14T07:28:11;24.60;99.90
18305;DHT22;9278;52.156;21.048;2022-08-14T07:30:47;24.80;99.90
18305;DHT22;9278;52.156;21.048;2022-08-14T07:33:18;25.20;99.90
18305;DHT22;9278;52.156;21.048;2022-08-14T07:35:57;25.80;99.90
18305;DHT22;9278;52.156;21.048;2022-08-14T07:38:27;26.00;99.90
18305;DHT22;9278;52.156;21.048;2022-08-14T07:41:04;25.90;99.90
18305;DHT22;9278;52.156;21.048;2022-08-14T07:43:41;26.10;99.90
18305;DHT22;9278;52.156;21.048;2022-08-14T07:46:21;26.60;99.90
18305;DHT22;9278;52.156;21.048;2022-08-14T07:48:55;26.20;99.90
18305;DHT22;9278;52.156;21.048;2022-08-14T07:51:24;26.40;99.90
18305;DHT22;9278;52.156;21.048;2022-08-14T07:54:01;26.60;99.90
18305;DHT22;9278;52.156;21.048;2022-08-14T07:56:36;26.70;99.90
18305;DHT22;9278;52.156;21.048;2022-08-14T07:59:16;26.40;99.90
18305;DHT22;9278;52.156;21.048;2022-08-14T08:02:08;26.00;99.90
18305;DHT22;9278;52.156;21.048;2022-08-14T08:04:48;25.70;99.90
18305;DHT22;9278;52.156;21.048;2022-08-14T08:07:21;26.00;99.90
18305;DHT22;9278;52.156;21.048;2022-08-14T08:09:58;26.50;99.90
18305;DHT22;9278;52.156;21.048;2022-08-14T08:12:28;26.90;99.90
18305;DHT22;9278;52.156;21.048;2022-08-14T08:14:59;26.60;99.90
18305;DHT22;9278;52.156;21.048;2022-08-14T08:17:35;26.50;99.90
18305;DHT22;9278;52.156;21.048;2022-08-14T08:20:21;26.40;99.90
18305;DHT22;9278;52.156;21.048;2022-08-14T08:22:54;26.20;99.90
18305;DHT22;9278;52.156;21.048;2022-08-14T08:25:35;26.30;99.90
18305;DHT22;9278;52.156;21.048;2022-08-14T08:28:09;26.30;99.90
18305;DHT22;9278;52.156;21.048;2022-08-14T08:30:55;26.20;99.90
18305;DHT22;9278;52.156;21.048;2022-08-14T08:33:28;26.30;99.90
18305;DHT22;9278;52.156;21.048;2022-08-14T08:35:59;26.50;99.90
18305;DHT22;9278;52.156;21.048;2022-08-14T08:38:29;27.00;99.90
18305;DHT22;9278;52.156;21.048;2022-08-14T08:41:18;27.00;99.90
18305;DHT22;9278;52.156;21.048;2022-08-14T08:43:47;26.70;99.90
18305;DHT22;9278;52.156;21.048;2022-08-14T08:46:19;26.60;99.90
18305;DHT22;9278;52.156;21.048;2022-08-14T08:48:51;27.00;99.90
18305;DHT22;9278;52.156;21.048;2022-08-14T08:51:21;26.70;99.90
18305;DHT22;9278;52.156;21.048;2022-08-14T08:53:58;26.50;99.90
18305;DHT22;9278;52.156;21.048;2022-08-14T08:56:39;27.20;99.90
18305;DHT22;9278;52.156;21.048;2022-08-14T08:59:19;27.20;99.90
18305;DHT22;9278;52.156;21.048;2022-08-14T09:01:49;27.30;99.90
18305;DHT22;9278;52.156;21.048;2022-08-14T09:04:23;27.20;99.90
18305;DHT22;9278;52.156;21.048;2022-08-14T09:06:52;27.40;99.90
18305;DHT22;9278;52.156;21.048;2022-08-14T09:09:37;27.70;99.90
18305;DHT22;9278;52.156;21.048;2022-08-14T09:12:26;27.60;99.90
18305;DHT22;9278;52.156;21.048;2022-08-14T09:15:00;27.90;99.90
18305;DHT22;9278;52.156;21.048;2022-08-14T09:17:29;27.40;99.90
18305;DHT22;9278;52.156;21.048;2022-08-14T09:19:59;27.50;99.90
18305;DHT22;9278;52.156;21.048;2022-08-14T09:22:31;27.50;99.90
18305;DHT22;9278;52.156;21.048;2022-08-14T09:25:08;27.70;99.90
18305;DHT22;9278;52.156;21.048;2022-08-14T09:27:42;27.80;99.90
18305;DHT22;9278;52.156;21.048;2022-08-14T09:30:11;27.90;99.90
18305;DHT22;9278;52.156;21.048;2022-08-14T09:33:10;28.00;99.90
18305;DHT22;9278;52.156;21.048;2022-08-14T09:36:05;27.80;99.90
18305;DHT22;9278;52.156;21.048;2022-08-14T09:38:43;28.10;99.90
18305;DHT22;9278;52.156;21.048;2022-08-14T09:41:28;28.10;99.90
18305;DHT22;9278;52.156;21.048;2022-08-14T09:44:32;28.00;99.90
18305;DHT22;9278;52.156;21.048;2022-08-14T09:47:04;27.80;99.90
18305;DHT22;9278;52.156;21.048;2022-08-14T09:49:33;27.70;99.90
18305;DHT22;9278;52.156;21.048;2022-08-14T09:52:08;27.80;99.90
18305;DHT22;9278;52.156;21.048;2022-08-14T09:54:57;27.80;99.90
18305;DHT22;9278;52.156;21.048;2022-08-14T09:57:26;28.50;99.90
18305;DHT22;9278;52.156;21.048;2022-08-14T09:59:57;28.40;99.90
18305;DHT22;9278;52.156;21.048;2022-08-14T10:02:56;28.30;99.90
18305;DHT22;9278;52.156;21.048;2022-08-14T10:05:33;28.20;99.90
18305;DHT22;9278;52.156;21.048;2022-08-14T10:08:16;28.20;99.90
18305;DHT22;9278;52.156;21.048;2022-08-14T10:10:52;28.40;99.90
18305;DHT22;9278;52.156;21.048;2022-08-14T10:13:28;28.50;99.90
18305;DHT22;9278;52.156;21.048;2022-08-14T10:16:19;28.10;99.90
18305;DHT22;9278;52.156;21.048;2022-08-14T10:19:04;28.30;99.90
18305;DHT22;9278;52.156;21.048;2022-08-14T10:21:36;28.20;99.90
18305;DHT22;9278;52.156;21.048;2022-08-14T10:24:26;28.10;99.90
18305;DHT22;9278;52.156;21.048;2022-08-14T10:27:02;28.20;99.90
18305;DHT22;9278;52.156;21.048;2022-08-14T10:29:32;28.40;99.90
18305;DHT22;9278;52.156;21.048;2022-08-14T10:32:04;28.40;99.90
18305;DHT22;9278;52.156;21.048;2022-08-14T10:34:45;28.60;99.90
18305;DHT22;9278;52.156;21.048;2022-08-14T10:37:19;28.50;99.90
18305;DHT22;9278;52.156;21.048;2022-08-14T10:39:59;28.70;99.90
18305;DHT22;9278;52.156;21.048;2022-08-14T10:42:38;29.00;99.90
18305;DHT22;9278;52.156;21.048;2022-08-14T10:45:16;28.90;99.90
18305;DHT22;9278;52.156;21.048;2022-08-14T10:47:49;29.30;99.90
18305;DHT22;9278;52.156;21.048;2022-08-14T10:50:39;28.80;99.90
18305;DHT22;9278;52.156;21.048;2022-08-14T10:53:12;29.20;99.90
18305;DHT22;9278;52.156;21.048;2022-08-14T10:55:41;29.40;99.90
18305;DHT22;9278;52.156;21.048;2022-08-14T10:58:11;28.90;99.90
18305;DHT22;9278;52.156;21.048;2022-08-14T11:00:54;28.90;99.90
18305;DHT22;9278;52.156;21.048;2022-08-14T11:03:24;28.40;99.90
18305;DHT22;9278;52.156;21.048;2022-08-14T11:06:16;28.60;99.90
18305;DHT22;9278;52.156;21.048;2022-08-14T11:08:47;28.60;99.90
18305;DHT22;9278;52.156;21.048;2022-08-14T11:11:17;28.40;99.90
18305;DHT22;9278;52.156;21.048;2022-08-14T11:13:46;28.30;99.90
18305;DHT22;9278;52.156;21.048;2022-08-14T11:16:16;28.40;99.90
18305;DHT22;9278;52.156;21.048;2022-08-14T11:18:47;28.70;99.90
18305;DHT22;9278;52.156;21.048;2022-08-14T11:21:18;29.10;99.90
18305;DHT22;9278;52.156;21.048;2022-08-14T11:23:49;29.00;99.90
18305;DHT22;9278;52.156;21.048;2022-08-14T11:26:24;28.50;99.90
18305;DHT22;9278;52.156;21.048;2022-08-14T11:28:57;28.80;99.90
18305;DHT22;9278;52.156;21.048;2022-08-14T11:31:30;28.90;99.90
18305;DHT22;9278;52.156;21.048;2022-08-14T11:34:06;29.30;99.90
18305;DHT22;9278;52.156;21.048;2022-08-14T11:36:54;28.60;99.90
18305;DHT22;9278;52.156;21.048;2022-08-14T11:39:42;28.80;99.90
18305;DHT22;9278;52.156;21.048;2022-08-14T11:42:20;28.90;99.90
18305;DHT22;9278;52.156;21.048;2022-08-14T11:45:10;29.10;99.90
18305;DHT22;9278;52.156;21.048;2022-08-14T11:47:44;29.10;99.90
18305;DHT22;9278;52.156;21.048;2022-08-14T11:50:34;28.70;99.90
18305;DHT22;9278;52.156;21.048;2022-08-14T11:53:05;28.70;99.90
18305;DHT22;9278;52.156;21.048;2022-08-14T11:55:36;28.60;99.90
18305;DHT22;9278;52.156;21.048;2022-08-14T11:58:07;28.40;99.90
18305;DHT22;9278;52.156;21.048;2022-08-14T12:00:47;27.90;99.90
18305;DHT22;9278;52.156;21.048;2022-08-14T12:03:15;28.00;99.90
18305;DHT22;9278;52.156;21.048;2022-08-14T12:06:06;28.70;99.90
18305;DHT22;9278;52.156;21.048;2022-08-14T12:08:55;28.70;99.90
18305;DHT22;9278;52.156;21.048;2022-08-14T12:11:36;28.80;99.90
18305;DHT22;9278;52.156;21.048;2022-08-14T12:14:11;29.40;99.90
18305;DHT22;9278;52.156;21.048;2022-08-14T12:17:00;29.60;99.90
18305;DHT22;9278;52.156;21.048;2022-08-14T12:19:43;29.80;99.90
18305;DHT22;9278;52.156;21.048;2022-08-14T12:22:19;29.80;99.90
18305;DHT22;9278;52.156;21.048;2022-08-14T12:24:58;29.40;99.90
18305;DHT22;9278;52.156;21.048;2022-08-14T12:27:38;29.40;99.90
18305;DHT22;9278;52.156;21.048;2022-08-14T12:30:08;28.90;99.90
18305;DHT22;9278;52.156;21.048;2022-08-14T12:32:38;28.90;99.90
18305;DHT22;9278;52.156;21.048;2022-08-14T12:35:08;29.30;99.90
18305;DHT22;9278;52.156;21.048;2022-08-14T12:37:46;29.40;99.90
18305;DHT22;9278;52.156;21.048;2022-08-14T12:40:18;29.10;99.90
18305;DHT22;9278;52.156;21.048;2022-08-14T12:42:50;28.70;99.90
18305;DHT22;9278;52.156;21.048;2022-08-14T12:45:30;28.70;99.90
18305;DHT22;9278;52.156;21.048;2022-08-14T12:48:00;28.80;99.90
18305;DHT22;9278;52.156;21.048;2022-08-14T12:50:50;28.50;99.90
18305;DHT22;9278;52.156;21.048;2022-08-14T12:53:20;28.20;99.90
18305;DHT22;9278;52.156;21.048;2022-08-14T12:55:58;28.30;99.90
18305;DHT22;9278;52.156;21.048;2022-08-14T12:58:48;28.30;99.90
18305;DHT22;9278;52.156;21.048;2022-08-14T13:01:20;28.20;99.90
18305;DHT22;9278;52.156;21.048;2022-08-14T13:03:49;28.10;99.90
18305;DHT22;9278;52.156;21.048;2022-08-14T13:06:18;28.20;99.90
18305;DHT22;9278;52.156;21.048;2022-08-14T13:08:53;28.10;99.90
18305;DHT22;9278;52.156;21.048;2022-08-14T13:11:33;28.20;99.90
18305;DHT22;9278;52.156;21.048;2022-08-14T13:14:07;28.10;99.90
18305;DHT22;9278;52.156;21.048;2022-08-14T13:16:44;28.10;99.90
18305;DHT22;9278;52.156;21.048;2022-08-14T13:19:17;28.00;99.90
18305;DHT22;9278;52.156;21.048;2022-08-14T13:21:47;28.00;99.90
18305;DHT22;9278;52.156;21.048;2022-08-14T13:24:33;28.20;99.90
18305;DHT22;9278;52.156;21.048;2022-08-14T13:27:05;28.30;99.90
18305;DHT22;9278;52.156;21.048;2022-08-14T13:29:39;28.30;99.90
18305;DHT22;9278;52.156;21.048;2022-08-14T13:32:12;28.00;99.90
18305;DHT22;9278;52.156;21.048;2022-08-14T13:34:42;28.00;99.90
18305;DHT22;9278;52.156;21.048;2022-08-14T13:37:13;28.20;99.90
18305;DHT22;9278;52.156;21.048;2022-08-14T13:39:47;28.00;99.90
18305;DHT22;9278;52.156;21.048;2022-08-14T13:42:23;27.90;99.90
18305;DHT22;9278;52.156;21.048;2022-08-14T13:44:57;28.00;99.90
18305;DHT22;9278;52.156;21.048;2022-08-14T13:47:28;28.20;99.90
18305;DHT22;9278;52.156;21.048;2022-08-14T13:50:00;28.20;99.90
18305;DHT22;9278;52.156;21.048;2022-08-14T13:52:33;28.30;99.90
18305;DHT22;9278;52.156;21.048;2022-08-14T13:55:22;28.10;99.90
18305;DHT22;9278;52.156;21.048;2022-08-14T13:57:57;28.10;99.90
18305;DHT22;9278;52.156;21.048;2022-08-14T14:00:31;28.10;99.90
18305;DHT22;9278;52.156;21.048;2022-08-14T14:03:18;28.00;99.90
18305;DHT22;9278;52.156;21.048;2022-08-14T14:05:49;28.20;99.90
18305;DHT22;9278;52.156;21.048;2022-08-14T14:08:22;29.00;99.90
18305;DHT22;9278;52.156;21.048;2022-08-14T14:11:12;28.90;99.90
18305;DHT22;9278;52.156;21.048;2022-08-14T14:13:42;29.00;99.90
18305;DHT22;9278;52.156;21.048;2022-08-14T14:16:12;28.70;99.90
18305;DHT22;9278;52.156;21.048;2022-08-14T14:18:57;28.60;99.90
18305;DHT22;9278;52.156;21.048;2022-08-14T14:21:35;28.60;99.90
18305;DHT22;9278;52.156;21.048;2022-08-14T14:24:07;28.60;99.90
18305;DHT22;9278;52.156;21.048;2022-08-14T14:26:45;28.30;99.90
18305;DHT22;9278;52.156;21.048;2022-08-14T14:29:18;28.40;99.90
18305;DHT22;9278;52.156;21.048;2022-08-14T14:31:52;28.60;99.90
18305;DHT22;9278;52.156;21.048;2022-08-14T14:34:23;28.40;99.90
18305;DHT22;9278;52.156;21.048;2022-08-14T14:36:57;28.40;99.90
18305;DHT22;9278;52.156;21.048;2022-08-14T14:39:29;28.30;99.90
18305;DHT22;9278;52.156;21.048;2022-08-14T14:42:06;28.10;99.90
18305;DHT22;9278;52.156;21.048;2022-08-14T14:44:45;28.00;99.90
18305;DHT22;9278;52.156;21.048;2022-08-14T14:47:22;28.00;99.90
18305;DHT22;9278;52.156;21.048;2022-08-14T14:49:52;28.10;99.90
18305;DHT22;9278;52.156;21.048;2022-08-14T14:52:23;28.30;99.90
18305;DHT22;9278;52.156;21.048;2022-08-14T14:54:55;28.10;99.90
18305;DHT22;9278;52.156;21.048;2022-08-14T14:57:26;28.30;99.90
18305;DHT22;9278;52.156;21.048;2022-08-14T15:00:02;28.20;99.90
18305;DHT22;9278;52.156;21.048;2022-08-14T15:02:33;28.10;99.90
18305;DHT22;9278;52.156;21.048;2022-08-14T15:05:03;28.40;99.90
18305;DHT22;9278;52.156;21.048;2022-08-14T15:07:34;28.30;99.90
18305;DHT22;9278;52.156;21.048;2022-08-14T15:10:04;28.20;99.90
18305;DHT22;9278;52.156;21.048;2022-08-14T15:12:53;28.20;99.90
18305;DHT22;9278;52.156;21.048;2022-08-14T15:15:25;28.10;99.90
18305;DHT22;9278;52.156;21.048;2022-08-14T15:17:53;27.80;99.90
18305;DHT22;9278;52.156;21.048;2022-08-14T15:20:23;27.90;99.90
18305;DHT22;9278;52.156;21.048;2022-08-14T15:22:57;27.90;99.90
18305;DHT22;9278;52.156;21.048;2022-08-14T15:25:38;28.00;99.90
18305;DHT22;9278;52.156;21.048;2022-08-14T15:28:07;28.10;99.90
18305;DHT22;9278;52.156;21.048;2022-08-14T15:30:47;28.10;99.90
18305;DHT22;9278;52.156;21.048;2022-08-14T15:33:23;28.00;99.90
18305;DHT22;9278;52.156;21.048;2022-08-14T15:36:25;28.00;99.90
18305;DHT22;9278;52.156;21.048;2022-08-14T15:38:55;27.80;99.90
18305;DHT22;9278;52.156;21.048;2022-08-14T15:41:25;27.80;99.90
18305;DHT22;9278;52.156;21.048;2022-08-14T15:44:08;27.90;99.90
18305;DHT22;9278;52.156;21.048;2022-08-14T15:46:53;28.10;99.90
18305;DHT22;9278;52.156;21.048;2022-08-14T15:49:25;28.20;99.90
18305;DHT22;9278;52.156;21.048;2022-08-14T15:52:01;28.10;99.90
18305;DHT22;9278;52.156;21.048;2022-08-14T15:54:31;28.00;99.90
18305;DHT22;9278;52.156;21.048;2022-08-14T15:57:02;27.60;99.90
18305;DHT22;9278;52.156;21.048;2022-08-14T15:59:35;27.60;99.90
18305;DHT22;9278;52.156;21.048;2022-08-14T16:02:23;27.60;99.90
18305;DHT22;9278;52.156;21.048;2022-08-14T16:04:54;27.80;99.90
18305;DHT22;9278;52.156;21.048;2022-08-14T16:07:23;27.90;99.90
18305;DHT22;9278;52.156;21.048;2022-08-14T16:09:53;27.90;99.90
18305;DHT22;9278;52.156;21.048;2022-08-14T16:12:41;27.90;99.90
18305;DHT22;9278;52.156;21.048;2022-08-14T16:15:14;28.00;99.90
18305;DHT22;9278;52.156;21.048;2022-08-14T16:17:45;28.10;99.90
18305;DHT22;9278;52.156;21.048;2022-08-14T16:20:15;28.10;99.90
18305;DHT22;9278;52.156;21.048;2022-08-14T16:23:04;28.00;99.90
18305;DHT22;9278;52.156;21.048;2022-08-14T16:25:38;28.10;99.90
18305;DHT22;9278;52.156;21.048;2022-08-14T16:28:09;28.00;99.90
18305;DHT22;9278;52.156;21.048;2022-08-14T16:30:54;28.10;99.90